Time;durP1;ratioP1;P1;durP2;ratioP2;P2;SDS_P1;SDS_P2;PMS_P1;PMS_P2;Temp;Humidity;BMP_temperature;BMP_pressure;BME280_temperature;BME280_humidity;BME280_pressure;Samples;Min_cycle;Max_cycle;Signal;HPM_P1;HPM_P2
2023/07/06 00:00:54;;;;;;;3.40;1.60;;;;;;;;;;5014578;28;20168;-64
2023/07/06 00:03:20;;;;;;;3.50;1.50;;;;;;;;;;5014307;28;20523;-65
2023/07/06 00:05:47;;;;;;;4.22;1.67;;;;;;;;;;5014456;28;20061;-63
2023/07/06 00:08:18;;;;;;;3.10;1.48;;;;;;;;;;5014314;28;20426;-62
2023/07/06 00:10:45;;;;;;;4.35;1.95;;;;;;;;;;5014118;28;20467;-63
2023/07/06 00:13:11;;;;;;;6.68;1.50;;;;;;;;;;5014067;28;20029;-63
2023/07/06 00:15:37;;;;;;;5.40;1.90;;;;;;;;;;5014135;28;20025;-65
2023/07/06 00:18:04;;;;;;;2.67;1.40;;;;;;;;;;4996737;28;20076;-62
2023/07/06 00:20:35;;;;;;;3.65;1.83;;;;;;;;;;5014121;28;20033;-63
2023/07/06 00:23:01;;;;;;;5.22;1.70;;;;;;;;;;5013986;28;20030;-63
2023/07/06 00:25:26;;;;;;;3.03;1.60;;;;;;;;;;5013984;28;20037;-64
2023/07/06 00:27:54;;;;;;;5.15;1.90;;;;;;;;;;5014004;28;20022;-64
2023/07/06 00:30:30;;;;;;;5.05;1.50;;;;;;;;;;5013946;28;20463;-61
2023/07/06 00:32:56;;;;;;;4.68;1.90;;;;;;;;;;5014110;28;20041;-61
2023/07/06 00:35:22;;;;;;;6.22;2.08;;;;;;;;;;5014046;28;20365;-61
2023/07/06 00:37:49;;;;;;;7.43;1.70;;;;;;;;;;5013858;28;20076;-62
2023/07/06 00:40:14;;;;;;;3.50;1.67;;;;;;;;;;5013490;28;20463;-61
2023/07/06 00:42:41;;;;;;;5.55;1.77;;;;;;;;;;5013565;28;20037;-62
2023/07/06 00:45:09;;;;;;;4.53;1.88;;;;;;;;;;5013637;28;20486;-62
2023/07/06 00:47:57;;;;;;;8.13;1.60;;;;;;;;;;5013419;28;20025;-61
2023/07/06 00:50:25;;;;;;;4.85;1.90;;;;;;;;;;5013497;28;20083;-62
2023/07/06 00:52:58;;;;;;;4.05;1.73;;;;;;;;;;5013659;28;20432;-63
2023/07/06 00:55:27;;;;;;;3.70;1.83;;;;;;;;;;5013538;28;20053;-62
2023/07/06 00:57:58;;;;;;;4.60;1.83;;;;;;;;;;5013716;28;20487;-61
2023/07/06 01:00:24;;;;;;;4.85;1.80;;;;;;;;;;5013613;28;20041;-61
2023/07/06 01:02:52;;;;;;;5.15;2.03;;;;;;;;;;5012568;28;20029;-62
2023/07/06 01:05:20;;;;;;;3.28;1.98;;;;;;;;;;5013375;28;20034;-64
2023/07/06 01:07:48;;;;;;;6.22;2.10;;;;;;;;;;5013450;28;20025;-62
2023/07/06 01:10:14;;;;;;;3.10;1.60;;;;;;;;;;5013069;28;20509;-62
2023/07/06 01:12:40;;;;;;;6.47;2.08;;;;;;;;;;5013444;28;20022;-62
2023/07/06 01:15:08;;;;;;;6.18;2.00;;;;;;;;;;5013339;28;20112;-62
2023/07/06 01:17:58;;;;;;;4.20;1.80;;;;;;;;;;5013379;28;20072;-61
2023/07/06 01:20:53;;;;;;;4.23;1.90;;;;;;;;;;4972004;28;20042;-64
2023/07/06 01:23:40;;;;;;;6.05;1.90;;;;;;;;;;4971829;28;20121;-62
2023/07/06 01:26:09;;;;;;;3.90;1.77;;;;;;;;;;4971964;28;20164;-62
2023/07/06 01:28:45;;;;;;;4.80;2.00;;;;;;;;;;4971948;28;20536;-61
2023/07/06 01:31:29;;;;;;;4.97;1.92;;;;;;;;;;4971861;28;20051;-63
2023/07/06 01:34:02;;;;;;;5.53;2.05;;;;;;;;;;4971904;28;20113;-64
2023/07/06 01:36:56;;;;;;;3.50;1.85;;;;;;;;;;4972071;28;20027;-61
2023/07/06 01:39:26;;;;;;;5.72;1.90;;;;;;;;;;4971524;28;20031;-62
2023/07/06 01:42:10;;;;;;;7.22;2.08;;;;;;;;;;4952425;29;20031;-62
2023/07/06 01:44:37;;;;;;;4.38;2.55;;;;;;;;;;4959100;28;20453;-62
2023/07/06 01:47:03;;;;;;;4.60;2.05;;;;;;;;;;4971314;28;20035;-62
2023/07/06 01:49:30;;;;;;;5.00;1.98;;;;;;;;;;4971721;28;20121;-62
2023/07/06 01:52:06;;;;;;;6.57;2.00;;;;;;;;;;4971474;28;20039;-62
2023/07/06 01:54:42;;;;;;;8.65;2.10;;;;;;;;;;4971839;28;20114;-61
2023/07/06 01:57:17;;;;;;;5.00;2.42;;;;;;;;;;4986022;28;20045;-62
2023/07/06 01:59:46;;;;;;;2.72;1.85;;;;;;;;;;5012869;28;20037;-62
2023/07/06 02:02:13;;;;;;;4.90;2.10;;;;;;;;;;5012609;28;20029;-62
2023/07/06 02:04:43;;;;;;;8.52;2.20;;;;;;;;;;5012671;28;20511;-64
2023/07/06 02:07:11;;;;;;;3.55;1.90;;;;;;;;;;5012355;28;20376;-62
2023/07/06 02:09:44;;;;;;;4.03;1.80;;;;;;;;;;5012676;28;20034;-63
2023/07/06 02:12:12;;;;;;;4.28;1.95;;;;;;;;;;5012679;28;20101;-62
2023/07/06 02:14:40;;;;;;;4.85;1.88;;;;;;;;;;5016026;28;20091;-63
2023/07/06 02:17:07;;;;;;;4.15;2.10;;;;;;;;;;5016605;28;20037;-65
2023/07/06 02:19:35;;;;;;;5.20;2.33;;;;;;;;;;5016571;28;20026;-63
2023/07/06 02:22:03;;;;;;;4.82;2.13;;;;;;;;;;4998570;28;20471;-62
2023/07/06 02:24:29;;;;;;;4.65;2.30;;;;;;;;;;5016518;28;20026;-62
2023/07/06 02:26:55;;;;;;;5.00;1.90;;;;;;;;;;5016583;28;20405;-62
2023/07/06 02:29:22;;;;;;;7.28;2.28;;;;;;;;;;5015874;28;20136;-64
2023/07/06 02:31:48;;;;;;;5.80;2.25;;;;;;;;;;5016373;28;20116;-62
2023/07/06 02:34:14;;;;;;;5.75;1.83;;;;;;;;;;5016343;28;20105;-62
2023/07/06 02:36:40;;;;;;;4.65;2.00;;;;;;;;;;5015980;28;20049;-62
2023/07/06 02:39:05;;;;;;;4.05;2.00;;;;;;;;;;5016138;28;20034;-62
2023/07/06 02:41:31;;;;;;;5.18;2.05;;;;;;;;;;5016153;28;20026;-63
2023/07/06 02:43:57;;;;;;;4.65;1.90;;;;;;;;;;5015665;28;20092;-62
2023/07/06 02:46:22;;;;;;;4.70;2.30;;;;;;;;;;5015810;28;20033;-63
2023/07/06 02:48:50;;;;;;;5.75;2.58;;;;;;;;;;5016153;28;20105;-61
2023/07/06 02:51:16;;;;;;;7.07;2.20;;;;;;;;;;5015605;28;20045;-61
2023/07/06 02:53:42;;;;;;;6.00;2.10;;;;;;;;;;5016011;28;20033;-62
2023/07/06 02:56:08;;;;;;;5.60;2.10;;;;;;;;;;5015929;28;20074;-62
2023/07/06 02:58:34;;;;;;;8.88;2.78;;;;;;;;;;5015776;28;20022;-62
2023/07/06 03:01:00;;;;;;;5.40;2.45;;;;;;;;;;5015789;28;20026;-62
2023/07/06 03:03:26;;;;;;;7.38;3.20;;;;;;;;;;5015618;28;20112;-61
2023/07/06 03:05:52;;;;;;;6.07;2.70;;;;;;;;;;5015353;28;20030;-62
2023/07/06 03:08:19;;;;;;;7.63;2.67;;;;;;;;;;5015609;28;20096;-61
2023/07/06 03:10:48;;;;;;;4.72;2.67;;;;;;;;;;5015721;28;20026;-61
2023/07/06 03:13:14;;;;;;;7.53;2.33;;;;;;;;;;5015333;28;20407;-62
2023/07/06 03:15:41;;;;;;;7.55;2.83;;;;;;;;;;5015622;28;20030;-61
2023/07/06 03:18:07;;;;;;;5.00;2.40;;;;;;;;;;5015633;28;20037;-62
2023/07/06 03:20:36;;;;;;;5.20;2.33;;;;;;;;;;5015115;28;20434;-63
2023/07/06 03:23:02;;;;;;;10.05;2.30;;;;;;;;;;5015171;28;20103;-63
2023/07/06 03:25:29;;;;;;;6.47;2.45;;;;;;;;;;5014378;28;20022;-61
2023/07/06 03:27:55;;;;;;;5.28;2.40;;;;;;;;;;5015223;28;20069;-62
2023/07/06 03:30:23;;;;;;;5.65;2.50;;;;;;;;;;5015261;28;20033;-62
2023/07/06 03:32:49;;;;;;;6.22;2.42;;;;;;;;;;5015377;28;20030;-61
2023/07/06 03:35:15;;;;;;;5.95;2.78;;;;;;;;;;5015031;28;20383;-62
2023/07/06 03:37:42;;;;;;;6.55;3.70;;;;;;;;;;5015114;28;20433;-62
2023/07/06 03:40:12;;;;;;;9.40;3.60;;;;;;;;;;5014978;28;20034;-61
2023/07/06 03:42:43;;;;;;;4.28;2.47;;;;;;;;;;5014745;28;20037;-61
2023/07/06 03:45:11;;;;;;;6.70;2.53;;;;;;;;;;5014755;28;20029;-61
2023/07/06 03:47:37;;;;;;;5.20;2.30;;;;;;;;;;5014706;28;20030;-62
2023/07/06 03:50:10;;;;;;;7.57;2.40;;;;;;;;;;5014550;28;20475;-62
2023/07/06 03:52:39;;;;;;;6.35;2.45;;;;;;;;;;5014939;28;20029;-62
2023/07/06 03:55:26;;;;;;;4.70;2.50;;;;;;;;;;5014745;28;20076;-62
2023/07/06 03:57:52;;;;;;;6.07;2.67;;;;;;;;;;5014749;28;20434;-63
2023/07/06 04:00:22;;;;;;;4.72;2.25;;;;;;;;;;5014736;28;20045;-62
2023/07/06 04:03:01;;;;;;;5.25;2.50;;;;;;;;;;5014392;28;20080;-62
2023/07/06 04:05:34;;;;;;;8.75;2.63;;;;;;;;;;5014681;28;20057;-62
2023/07/06 04:08:03;;;;;;;6.75;2.30;;;;;;;;;;5014550;28;20486;-62
2023/07/06 04:10:29;;;;;;;4.90;2.65;;;;;;;;;;5014503;28;20025;-62
2023/07/06 04:12:55;;;;;;;5.85;2.78;;;;;;;;;;5014538;28;20475;-63
2023/07/06 04:15:22;;;;;;;11.75;2.90;;;;;;;;;;5014365;28;20058;-63
2023/07/06 04:17:48;;;;;;;4.60;2.40;;;;;;;;;;5014174;28;20030;-63
2023/07/06 04:20:19;;;;;;;5.53;2.60;;;;;;;;;;5014240;28;20109;-62
2023/07/06 04:22:51;;;;;;;5.72;2.10;;;;;;;;;;5014357;28;20065;-62
2023/07/06 04:25:20;;;;;;;6.07;2.05;;;;;;;;;;5014226;28;20096;-62
2023/07/06 04:27:47;;;;;;;5.43;2.20;;;;;;;;;;5013927;28;20026;-62
2023/07/06 04:30:14;;;;;;;5.13;2.53;;;;;;;;;;5014126;28;20050;-62
2023/07/06 04:32:41;;;;;;;5.55;2.38;;;;;;;;;;5014017;28;20033;-62
2023/07/06 04:35:11;;;;;;;3.75;2.05;;;;;;;;;;5014091;28;20026;-62
2023/07/06 04:37:37;;;;;;;4.65;2.28;;;;;;;;;;5013946;28;20052;-62
2023/07/06 04:40:11;;;;;;;7.20;2.75;;;;;;;;;;5013673;28;20034;-62
2023/07/06 04:42:37;;;;;;;5.22;2.13;;;;;;;;;;5013707;28;20033;-62
2023/07/06 04:45:03;;;;;;;4.95;2.20;;;;;;;;;;5013891;28;20030;-62
2023/07/06 04:47:29;;;;;;;4.00;2.30;;;;;;;;;;5013506;28;20030;-61
2023/07/06 04:49:54;;;;;;;6.53;2.50;;;;;;;;;;5013917;28;20506;-62
2023/07/06 04:52:20;;;;;;;3.70;2.10;;;;;;;;;;5013770;28;20083;-63
2023/07/06 04:54:50;;;;;;;5.78;2.30;;;;;;;;;;5013790;28;20030;-64
2023/07/06 04:57:16;;;;;;;8.70;2.53;;;;;;;;;;5013783;28;20454;-61
2023/07/06 04:59:42;;;;;;;4.18;2.35;;;;;;;;;;5013611;28;20040;-62
2023/07/06 05:02:07;;;;;;;6.18;2.63;;;;;;;;;;5013284;28;20025;-61
2023/07/06 05:04:33;;;;;;;5.55;2.20;;;;;;;;;;5013617;28;20125;-62
2023/07/06 05:06:59;;;;;;;3.78;2.05;;;;;;;;;;5013497;28;20026;-62
2023/07/06 05:09:24;;;;;;;4.75;2.30;;;;;;;;;;5013465;28;20479;-62
2023/07/06 05:11:52;;;;;;;4.65;2.40;;;;;;;;;;5013568;28;20022;-61
2023/07/06 05:14:18;;;;;;;7.70;2.45;;;;;;;;;;5013420;28;20057;-62
2023/07/06 05:16:43;;;;;;;4.95;2.35;;;;;;;;;;5013258;28;20026;-61
2023/07/06 05:19:09;;;;;;;3.47;2.05;;;;;;;;;;5013187;28;20112;-61
2023/07/06 05:21:35;;;;;;;3.75;2.15;;;;;;;;;;5013299;28;20030;-63
2023/07/06 05:24:01;;;;;;;5.45;2.72;;;;;;;;;;5013089;28;20106;-62
2023/07/06 05:26:27;;;;;;;11.90;2.83;;;;;;;;;;5013299;28;20033;-62
2023/07/06 05:28:53;;;;;;;5.15;2.65;;;;;;;;;;5012958;28;20059;-62
2023/07/06 05:31:19;;;;;;;7.05;2.30;;;;;;;;;;5012878;28;20029;-61
2023/07/06 05:33:45;;;;;;;8.07;1.98;;;;;;;;;;5013061;28;20022;-61
2023/07/06 05:36:10;;;;;;;7.93;2.60;;;;;;;;;;5013073;28;20470;-62
2023/07/06 05:38:36;;;;;;;5.45;2.15;;;;;;;;;;5012999;28;20022;-62
2023/07/06 05:41:02;;;;;;;7.40;1.83;;;;;;;;;;5012683;28;20038;-61
2023/07/06 05:43:28;;;;;;;7.18;2.13;;;;;;;;;;5012798;28;20582;-62
2023/07/06 05:45:54;;;;;;;4.72;2.00;;;;;;;;;;5012582;28;20030;-63
2023/07/06 05:48:19;;;;;;;5.60;2.22;;;;;;;;;;5012049;28;20026;-62
2023/07/06 05:50:45;;;;;;;4.68;2.00;;;;;;;;;;5012919;28;20030;-62
2023/07/06 05:53:11;;;;;;;3.63;1.92;;;;;;;;;;5012686;28;20028;-62
2023/07/06 05:55:36;;;;;;;4.40;1.70;;;;;;;;;;5012955;28;20101;-62
2023/07/06 05:58:02;;;;;;;4.72;2.22;;;;;;;;;;5012677;28;20033;-61
2023/07/06 06:00:32;;;;;;;4.75;1.90;;;;;;;;;;5012465;28;20110;-62
2023/07/06 06:02:58;;;;;;;5.43;1.77;;;;;;;;;;5012664;28;20138;-62
2023/07/06 06:05:23;;;;;;;5.18;1.80;;;;;;;;;;5012632;28;20136;-62
2023/07/06 06:07:49;;;;;;;3.97;2.28;;;;;;;;;;5012619;28;20030;-61
2023/07/06 06:10:14;;;;;;;6.68;2.58;;;;;;;;;;5012661;28;20076;-62
2023/07/06 06:12:40;;;;;;;4.40;2.00;;;;;;;;;;5012665;28;20026;-62
2023/07/06 06:15:10;;;;;;;7.03;2.30;;;;;;;;;;5012599;28;20014;-63
2023/07/06 06:17:37;;;;;;;4.57;2.00;;;;;;;;;;5012627;28;20049;-62
2023/07/06 06:20:03;;;;;;;5.82;1.95;;;;;;;;;;5012545;28;20025;-62
2023/07/06 06:22:28;;;;;;;5.18;1.90;;;;;;;;;;5012589;28;20025;-62
2023/07/06 06:24:55;;;;;;;6.70;2.10;;;;;;;;;;5012694;28;20395;-62
2023/07/06 06:27:20;;;;;;;5.93;1.98;;;;;;;;;;5011993;28;20028;-61
2023/07/06 06:29:46;;;;;;;4.38;1.70;;;;;;;;;;5012409;28;20021;-62
2023/07/06 06:32:12;;;;;;;7.05;2.17;;;;;;;;;;5012541;28;20025;-62
2023/07/06 06:34:39;;;;;;;7.95;2.30;;;;;;;;;;5012514;28;20038;-63
2023/07/06 06:37:04;;;;;;;6.13;2.00;;;;;;;;;;5012387;28;20037;-62
2023/07/06 06:39:33;;;;;;;4.90;2.00;;;;;;;;;;5010835;28;20014;-63
2023/07/06 06:42:00;;;;;;;3.50;2.03;;;;;;;;;;5011910;28;20026;-63
2023/07/06 06:44:28;;;;;;;6.30;2.20;;;;;;;;;;5011994;28;20487;-63
2023/07/06 06:46:56;;;;;;;8.48;2.08;;;;;;;;;;5011789;28;20101;-63
2023/07/06 06:49:22;;;;;;;4.35;1.73;;;;;;;;;;5012254;28;20389;-63
2023/07/06 06:51:47;;;;;;;5.13;2.30;;;;;;;;;;5012096;28;20032;-63
2023/07/06 06:54:13;;;;;;;6.55;2.55;;;;;;;;;;5012100;28;20029;-65
2023/07/06 06:56:40;;;;;;;6.38;2.13;;;;;;;;;;5011922;28;20022;-63
2023/07/06 06:59:07;;;;;;;7.85;2.15;;;;;;;;;;5011905;28;20030;-63
2023/07/06 07:01:33;;;;;;;3.78;1.88;;;;;;;;;;5015025;28;20471;-63
2023/07/06 07:04:00;;;;;;;3.50;1.77;;;;;;;;;;5015470;28;20402;-63
2023/07/06 07:06:27;;;;;;;7.03;2.20;;;;;;;;;;5015584;28;20029;-63
2023/07/06 07:08:54;;;;;;;3.88;2.00;;;;;;;;;;5015720;28;20125;-65
2023/07/06 07:11:20;;;;;;;4.68;1.75;;;;;;;;;;5015214;28;20026;-63
2023/07/06 07:13:50;;;;;;;6.40;1.77;;;;;;;;;;5015311;28;20029;-63
2023/07/06 07:16:17;;;;;;;6.07;2.22;;;;;;;;;;5015483;28;20079;-64
2023/07/06 07:18:43;;;;;;;4.60;1.60;;;;;;;;;;5015473;28;20033;-63
2023/07/06 07:21:10;;;;;;;4.72;2.03;;;;;;;;;;5015179;28;20042;-63
2023/07/06 07:23:41;;;;;;;5.05;2.00;;;;;;;;;;5015330;28;20029;-63
2023/07/06 07:26:07;;;;;;;6.38;1.70;;;;;;;;;;5014906;28;20057;-63
2023/07/06 07:28:33;;;;;;;5.43;1.58;;;;;;;;;;5015118;28;20037;-63
2023/07/06 07:30:59;;;;;;;4.35;1.85;;;;;;;;;;5015444;28;20049;-63
2023/07/06 07:33:29;;;;;;;5.22;2.40;;;;;;;;;;5015174;28;20084;-63
2023/07/06 07:36:00;;;;;;;3.80;1.60;;;;;;;;;;5015143;28;20026;-63
2023/07/06 07:38:26;;;;;;;5.47;1.80;;;;;;;;;;5015120;28;20544;-63
2023/07/06 07:40:55;;;;;;;4.80;1.58;;;;;;;;;;5014895;28;20062;-64
2023/07/06 07:43:25;;;;;;;3.38;1.52;;;;;;;;;;5014638;28;20057;-64
2023/07/06 07:45:55;;;;;;;3.00;1.70;;;;;;;;;;5015045;28;20029;-64
2023/07/06 07:48:23;;;;;;;;;;;;;;;;;;5014960;28;20068;-64
2023/07/06 07:50:50;;;;;;;4.63;1.50;;;;;;;;;;5014650;28;20260;-65
2023/07/06 07:53:16;;;;;;;3.80;1.70;;;;;;;;;;5014594;28;20053;-63
2023/07/06 07:55:41;;;;;;;4.90;1.70;;;;;;;;;;5014558;28;20490;-64
2023/07/06 07:58:08;;;;;;;3.33;1.23;;;;;;;;;;5014658;28;20033;-65
2023/07/06 08:00:34;;;;;;;3.58;1.52;;;;;;;;;;5014622;28;20105;-64
2023/07/06 08:03:03;;;;;;;8.98;1.42;;;;;;;;;;5014560;28;20091;-64
2023/07/06 08:05:29;;;;;;;3.72;1.42;;;;;;;;;;5014758;28;20030;-63
2023/07/06 08:07:55;;;;;;;3.20;1.20;;;;;;;;;;5014372;28;20029;-64
2023/07/06 08:10:21;;;;;;;3.58;1.20;;;;;;;;;;5014155;28;20112;-63
2023/07/06 08:12:48;;;;;;;5.10;1.30;;;;;;;;;;5014313;28;20026;-64
2023/07/06 08:15:14;;;;;;;3.35;1.65;;;;;;;;;;5014328;28;20048;-65
2023/07/06 08:17:41;;;;;;;3.95;1.45;;;;;;;;;;5014434;28;20503;-64
2023/07/06 08:20:10;;;;;;;2.50;1.38;;;;;;;;;;5014263;28;20041;-63
2023/07/06 08:22:36;;;;;;;3.15;1.20;;;;;;;;;;5014471;28;20037;-65
2023/07/06 08:25:03;;;;;;;2.90;1.40;;;;;;;;;;5014071;28;20063;-63
2023/07/06 08:27:30;;;;;;;6.60;1.42;;;;;;;;;;5013985;28;20045;-64
2023/07/06 08:29:55;;;;;;;6.10;1.50;;;;;;;;;;5013984;28;20030;-63
2023/07/06 08:32:21;;;;;;;2.45;1.20;;;;;;;;;;5014163;28;20052;-64
2023/07/06 08:34:47;;;;;;;3.42;1.38;;;;;;;;;;5014085;28;20030;-63
2023/07/06 08:37:12;;;;;;;5.20;1.48;;;;;;;;;;5013889;28;20036;-65
2023/07/06 08:39:39;;;;;;;3.30;1.38;;;;;;;;;;5013619;28;20022;-64
2023/07/06 08:42:09;;;;;;;4.72;1.60;;;;;;;;;;5013600;28;20022;-64
2023/07/06 08:44:36;;;;;;;5.40;1.40;;;;;;;;;;4999501;28;20394;-63
2023/07/06 08:47:02;;;;;;;2.78;1.30;;;;;;;;;;5013437;28;20030;-63
2023/07/06 08:49:35;;;;;;;4.05;1.40;;;;;;;;;;5013702;28;20025;-64
2023/07/06 08:52:05;;;;;;;7.15;1.33;;;;;;;;;;5013776;28;20108;-64
2023/07/06 08:54:35;;;;;;;3.55;1.30;;;;;;;;;;5013574;28;20030;-63
2023/07/06 08:57:02;;;;;;;3.05;1.40;;;;;;;;;;5013590;28;20026;-63
2023/07/06 08:59:33;;;;;;;2.42;1.30;;;;;;;;;;5013603;28;20025;-64
2023/07/06 09:02:09;;;;;;;3.25;1.30;;;;;;;;;;5013464;28;20030;-63
2023/07/06 09:04:34;;;;;;;3.40;1.23;;;;;;;;;;5013612;28;20082;-64
2023/07/06 09:07:02;;;;;;;3.50;1.50;;;;;;;;;;5013188;28;20479;-64
2023/07/06 09:09:28;;;;;;;3.35;1.27;;;;;;;;;;4995690;28;20399;-63
2023/07/06 09:11:58;;;;;;;5.13;1.45;;;;;;;;;;5013407;28;20022;-65
2023/07/06 09:14:28;;;;;;;2.60;1.35;;;;;;;;;;5013342;28;20331;-64
2023/07/06 09:16:55;;;;;;;4.43;1.50;;;;;;;;;;5013366;28;20022;-63
2023/07/06 09:19:23;;;;;;;5.07;1.38;;;;;;;;;;5013280;28;20034;-65
2023/07/06 09:21:54;;;;;;;7.07;1.60;;;;;;;;;;5012738;28;20486;-64
2023/07/06 09:24:27;;;;;;;2.65;1.25;;;;;;;;;;5012442;28;20026;-63
2023/07/06 09:26:53;;;;;;;3.05;1.30;;;;;;;;;;5013148;28;20088;-64
2023/07/06 09:29:20;;;;;;;3.78;1.23;;;;;;;;;;5012798;28;20025;-63
2023/07/06 09:31:47;;;;;;;4.05;1.20;;;;;;;;;;5013167;28;20022;-64
2023/07/06 09:34:33;;;;;;;4.20;1.40;;;;;;;;;;5012860;28;20032;-64
2023/07/06 09:37:02;;;;;;;4.85;1.30;;;;;;;;;;5013016;28;20026;-64
2023/07/06 09:39:27;;;;;;;3.20;1.10;;;;;;;;;;5012884;28;20356;-63
2023/07/06 09:41:53;;;;;;;5.57;1.30;;;;;;;;;;5012996;28;20028;-63
2023/07/06 09:44:29;;;;;;;2.30;1.20;;;;;;;;;;5012586;28;20046;-64
2023/07/06 09:46:56;;;;;;;2.95;1.17;;;;;;;;;;5012468;28;20510;-63
2023/07/06 09:49:28;;;;;;;3.45;1.10;;;;;;;;;;5012616;28;20033;-63
2023/07/06 09:52:09;;;;;;;4.38;1.33;;;;;;;;;;5012645;28;20037;-63
2023/07/06 09:55:00;;;;;;;4.07;1.20;;;;;;;;;;5012842;28;20121;-64
2023/07/06 09:57:30;;;;;;;1.70;0.98;;;;;;;;;;5012665;28;20099;-64
2023/07/06 09:59:58;;;;;;;2.83;1.10;;;;;;;;;;5012646;28;20037;-63
2023/07/06 10:02:31;;;;;;;4.78;1.00;;;;;;;;;;5012625;28;20032;-63
2023/07/06 10:05:14;;;;;;;4.82;1.17;;;;;;;;;;5012414;28;20029;-63
2023/07/06 10:07:40;;;;;;;3.90;1.17;;;;;;;;;;5012145;28;20049;-63
2023/07/06 10:10:30;;;;;;;2.60;0.98;;;;;;;;;;5012518;28;20030;-63
2023/07/06 10:13:17;;;;;;;1.20;1.00;;;;;;;;;;5012698;28;20080;-64
2023/07/06 10:16:05;;;;;;;2.75;1.25;;;;;;;;;;5012492;28;20105;-64
2023/07/06 10:18:39;;;;;;;5.53;1.40;;;;;;;;;;5012300;28;20030;-63
2023/07/06 10:21:20;;;;;;;1.92;1.20;;;;;;;;;;5012247;28;20053;-63
2023/07/06 10:24:00;;;;;;;1.98;1.10;;;;;;;;;;5012353;28;20037;-63
2023/07/06 10:26:34;;;;;;;1.40;0.90;;;;;;;;;;5012502;28;20047;-63
2023/07/06 10:29:01;;;;;;;3.60;1.50;;;;;;;;;;5012410;28;20034;-63
2023/07/06 10:31:39;;;;;;;2.63;1.10;;;;;;;;;;5012466;28;20026;-63
2023/07/06 10:34:13;;;;;;;2.08;0.95;;;;;;;;;;5013007;28;20030;-64
2023/07/06 10:36:40;;;;;;;3.55;1.20;;;;;;;;;;5016315;28;20058;-63
2023/07/06 10:39:27;;;;;;;2.38;1.20;;;;;;;;;;5016139;28;20037;-66
2023/07/06 10:42:19;;;;;;;2.20;1.20;;;;;;;;;;4917472;29;20044;-63
2023/07/06 10:44:50;;;;;;;7.63;1.30;;;;;;;;;;4932943;29;20047;-63
2023/07/06 10:47:28;;;;;;;3.03;1.25;;;;;;;;;;4952059;29;20424;-63
2023/07/06 10:50:06;;;;;;;3.72;1.30;;;;;;;;;;4955188;29;20435;-66
2023/07/06 10:52:43;;;;;;;3.22;1.23;;;;;;;;;;4955419;29;20143;-64
2023/07/06 10:55:18;;;;;;;4.60;1.30;;;;;;;;;;4955413;29;20082;-63
2023/07/06 10:57:51;;;;;;;2.35;1.30;;;;;;;;;;4955240;29;20071;-63
2023/07/06 11:00:20;;;;;;;2.17;1.10;;;;;;;;;;4955387;29;20519;-63
2023/07/06 11:02:46;;;;;;;2.70;1.40;;;;;;;;;;4955069;29;20476;-65
2023/07/06 11:05:25;;;;;;;4.57;1.13;;;;;;;;;;4954943;29;20054;-64
2023/07/06 11:07:52;;;;;;;2.97;1.17;;;;;;;;;;4955196;29;20042;-63
2023/07/06 11:10:48;;;;;;;3.13;1.20;;;;;;;;;;4955133;29;20064;-64
2023/07/06 11:13:21;;;;;;;2.60;1.33;;;;;;;;;;4954087;28;20046;-63
2023/07/06 11:15:50;;;;;;;4.30;1.10;;;;;;;;;;4955037;29;20122;-63
2023/07/06 11:18:23;;;;;;;3.85;1.20;;;;;;;;;;4967798;28;20109;-62
2023/07/06 11:20:54;;;;;;;2.30;1.00;;;;;;;;;;5015425;28;20511;-61
2023/07/06 11:23:36;;;;;;;2.10;0.93;;;;;;;;;;5015096;28;20037;-62
2023/07/06 11:26:07;;;;;;;2.58;1.17;;;;;;;;;;5015123;28;20109;-62
2023/07/06 11:28:33;;;;;;;2.00;1.27;;;;;;;;;;5015051;28;20037;-62
2023/07/06 11:31:27;;;;;;;2.63;1.38;;;;;;;;;;5015162;28;20025;-61
2023/07/06 11:34:07;;;;;;;4.97;1.13;;;;;;;;;;4973678;28;20162;-62
2023/07/06 11:36:45;;;;;;;2.53;1.42;;;;;;;;;;4973934;28;20031;-61
2023/07/06 11:39:19;;;;;;;4.65;1.73;;;;;;;;;;4973624;28;20086;-62
2023/07/06 11:41:57;;;;;;;2.15;1.20;;;;;;;;;;4973523;28;20054;-61
2023/07/06 11:44:31;;;;;;;2.22;1.17;;;;;;;;;;4978562;28;20607;-62
2023/07/06 11:47:21;;;;;;;2.50;1.20;;;;;;;;;;4984408;28;20038;-64
2023/07/06 11:49:51;;;;;;;4.68;1.30;;;;;;;;;;4973636;28;20054;-62
2023/07/06 11:52:25;;;;;;;3.05;1.30;;;;;;;;;;4973460;28;20066;-62
2023/07/06 11:57:51;;;;;;;2.13;1.13;;;;;;;;;;4973535;28;20419;-62
2023/07/06 12:03:09;;;;;;;2.40;1.23;;;;;;;;;;4972855;28;20114;-63
2023/07/06 12:05:40;;;;;;;2.72;1.30;;;;;;;;;;4973277;28;20102;-62
2023/07/06 12:08:16;;;;;;;4.35;1.30;;;;;;;;;;4973179;28;20031;-63
2023/07/06 12:10:45;;;;;;;4.88;1.25;;;;;;;;;;4993769;28;20045;-64
2023/07/06 12:13:18;;;;;;;5.88;1.13;;;;;;;;;;5013748;28;20057;-63
2023/07/06 12:15:47;;;;;;;2.70;1.27;;;;;;;;;;5014199;28;20036;-62
2023/07/06 12:18:14;;;;;;;3.63;1.15;;;;;;;;;;4996399;28;20026;-63
2023/07/06 12:20:40;;;;;;;2.58;1.30;;;;;;;;;;5014202;28;20030;-63
2023/07/06 12:23:11;;;;;;;3.28;1.30;;;;;;;;;;5013910;28;20076;-62
2023/07/06 12:25:40;;;;;;;1.70;1.10;;;;;;;;;;5014118;28;20037;-65
2023/07/06 12:28:11;;;;;;;4.30;1.30;;;;;;;;;;5013993;28;20108;-63
2023/07/06 12:30:37;;;;;;;2.47;1.15;;;;;;;;;;5013792;28;20037;-63
2023/07/06 12:33:10;;;;;;;2.20;1.10;;;;;;;;;;5013888;28;20025;-63
2023/07/06 12:35:37;;;;;;;5.22;1.70;;;;;;;;;;5013955;28;20022;-63
2023/07/06 12:38:06;;;;;;;2.88;1.33;;;;;;;;;;5013865;28;20030;-63
2023/07/06 12:40:33;;;;;;;4.27;1.30;;;;;;;;;;5013597;28;20076;-63
2023/07/06 12:43:00;;;;;;;2.30;1.27;;;;;;;;;;5013312;28;20050;-62
2023/07/06 12:45:29;;;;;;;3.38;1.40;;;;;;;;;;5013482;28;20038;-63
2023/07/06 12:48:04;;;;;;;4.80;1.42;;;;;;;;;;5013403;28;20026;-63
2023/07/06 12:50:37;;;;;;;4.55;1.40;;;;;;;;;;5013461;28;20033;-64
2023/07/06 12:53:13;;;;;;;5.95;1.38;;;;;;;;;;5013329;28;20034;-63
2023/07/06 12:55:41;;;;;;;4.78;1.35;;;;;;;;;;5013489;28;20060;-63
2023/07/06 12:58:15;;;;;;;3.70;1.30;;;;;;;;;;5013511;28;20533;-62
2023/07/06 13:00:40;;;;;;;3.40;1.52;;;;;;;;;;5013199;28;20112;-63
2023/07/06 13:03:10;;;;;;;2.25;1.20;;;;;;;;;;5013054;28;20141;-62
2023/07/06 13:05:35;;;;;;;5.40;1.45;;;;;;;;;;5013373;28;20044;-63
2023/07/06 13:08:08;;;;;;;4.22;1.30;;;;;;;;;;5013241;28;20444;-63
2023/07/06 13:10:36;;;;;;;3.42;1.65;;;;;;;;;;5013342;28;20052;-63
2023/07/06 13:13:07;;;;;;;5.68;1.52;;;;;;;;;;5013327;28;20421;-63
2023/07/06 13:15:45;;;;;;;2.20;1.27;;;;;;;;;;5013115;28;20029;-63
2023/07/06 13:18:14;;;;;;;3.33;1.55;;;;;;;;;;5011742;28;20394;-63
2023/07/06 13:20:41;;;;;;;1.73;1.20;;;;;;;;;;5012265;28;20034;-63
2023/07/06 13:23:09;;;;;;;4.07;1.63;;;;;;;;;;5013092;28;20022;-63
2023/07/06 13:25:40;;;;;;;3.83;1.40;;;;;;;;;;5013286;28;20520;-63
2023/07/06 13:28:08;;;;;;;4.55;1.65;;;;;;;;;;5012910;28;20494;-62
2023/07/06 13:30:36;;;;;;;2.95;1.42;;;;;;;;;;5013199;28;20053;-65
2023/07/06 13:33:02;;;;;;;3.83;1.63;;;;;;;;;;5013143;28;20029;-63
2023/07/06 13:35:28;;;;;;;3.17;1.40;;;;;;;;;;5012171;28;20055;-63
2023/07/06 13:37:53;;;;;;;3.33;1.50;;;;;;;;;;5012738;28;20112;-63
2023/07/06 13:40:22;;;;;;;4.20;1.85;;;;;;;;;;5013017;28;20026;-65
2023/07/06 13:42:51;;;;;;;4.40;1.43;;;;;;;;;;5012420;28;20042;-63
2023/07/06 13:45:25;;;;;;;5.43;1.70;;;;;;;;;;5012525;28;20169;-63
2023/07/06 13:47:52;;;;;;;2.63;1.40;;;;;;;;;;5012739;28;20030;-63
2023/07/06 13:50:21;;;;;;;3.97;1.60;;;;;;;;;;5013002;28;20049;-63
2023/07/06 13:52:46;;;;;;;3.93;1.40;;;;;;;;;;5011503;28;20029;-63
2023/07/06 13:55:21;;;;;;;3.63;1.50;;;;;;;;;;5011980;28;20759;-66
2023/07/06 13:57:47;;;;;;;4.60;1.30;;;;;;;;;;5011787;28;20116;-63
2023/07/06 14:00:14;;;;;;;3.28;1.75;;;;;;;;;;5012100;28;20058;-64
2023/07/06 14:02:40;;;;;;;5.60;1.48;;;;;;;;;;5012217;28;20022;-63
2023/07/06 14:05:12;;;;;;;2.45;1.27;;;;;;;;;;5012744;28;20383;-64
2023/07/06 14:07:39;;;;;;;3.10;1.45;;;;;;;;;;5012307;28;20471;-65
2023/07/06 14:10:06;;;;;;;4.22;1.30;;;;;;;;;;5017489;28;20029;-64
2023/07/06 14:12:32;;;;;;;9.85;1.30;;;;;;;;;;5018796;28;20041;-65
2023/07/06 14:14:58;;;;;;;4.47;1.50;;;;;;;;;;5019239;28;20386;-63
2023/07/06 14:17:23;;;;;;;3.45;1.40;;;;;;;;;;5019238;28;20026;-63
2023/07/06 14:19:49;;;;;;;4.68;1.25;;;;;;;;;;5019081;28;20033;-63
2023/07/06 14:22:14;;;;;;;3.22;1.38;;;;;;;;;;5018810;28;20034;-65
2023/07/06 14:24:40;;;;;;;1.95;1.17;;;;;;;;;;5019203;28;20034;-64
2023/07/06 14:27:08;;;;;;;3.05;1.23;;;;;;;;;;5018753;28;20025;-63
2023/07/06 14:29:33;;;;;;;3.38;1.60;;;;;;;;;;5019004;28;20037;-63
2023/07/06 14:32:00;;;;;;;4.47;1.50;;;;;;;;;;5019040;28;20366;-64
2023/07/06 14:34:25;;;;;;;6.53;1.60;;;;;;;;;;5018997;28;20505;-64
2023/07/06 14:36:51;;;;;;;3.08;1.23;;;;;;;;;;5018917;28;20104;-64
2023/07/06 14:39:19;;;;;;;5.65;1.60;;;;;;;;;;5018910;28;20026;-65
2023/07/06 14:41:45;;;;;;;3.67;1.45;;;;;;;;;;5018411;28;20531;-64
2023/07/06 14:44:11;;;;;;;3.47;1.30;;;;;;;;;;5018545;28;20081;-64
2023/07/06 14:46:36;;;;;;;6.00;1.30;;;;;;;;;;5018763;28;20080;-63
2023/07/06 14:49:03;;;;;;;3.05;1.48;;;;;;;;;;5018898;28;20037;-64
2023/07/06 14:51:31;;;;;;;3.78;1.23;;;;;;;;;;5019076;28;20026;-64
2023/07/06 14:53:57;;;;;;;2.72;1.38;;;;;;;;;;5018948;28;20438;-65
2023/07/06 14:56:23;;;;;;;3.40;1.30;;;;;;;;;;5018717;28;20104;-64
2023/07/06 14:58:48;;;;;;;4.65;1.52;;;;;;;;;;5018971;28;20430;-63
2023/07/06 15:01:15;;;;;;;2.97;1.30;;;;;;;;;;5018849;28;20029;-63